Time;durP1;ratioP1;P1;durP2;ratioP2;P2;SDS_P1;SDS_P2;PMS_P1;PMS_P2;Temp;Humidity;BMP_temperature;BMP_pressure;BME280_temperature;BME280_humidity;BME280_pressure;Samples;Min_cycle;Max_cycle;Signal;HPM_P1;HPM_P2
2022/05/23 00:02:01;;;;;;;3.55;1.88;;;20.70;99.90;;;;;;5014656;28;20175;-81
2022/05/23 00:04:26;;;;;;;7.78;1.73;;;20.70;99.90;;;;;;5013996;28;20195;-80
2022/05/23 00:06:54;;;;;;;5.18;2.10;;;20.70;99.90;;;;;;5012632;28;20238;-80
2022/05/23 00:09:20;;;;;;;5.95;2.00;;;20.60;99.90;;;;;;5013717;28;20214;-84
2022/05/23 00:11:46;;;;;;;5.28;2.00;;;20.60;99.90;;;;;;5015073;28;20161;-85
2022/05/23 00:14:12;;;;;;;11.43;1.90;;;20.60;99.90;;;;;;5013506;28;20175;-79
2022/05/23 00:16:43;;;;;;;7.50;2.30;;;20.50;99.90;;;;;;5013251;28;20180;-80
2022/05/23 00:19:10;;;;;;;2.58;2.13;;;20.50;99.90;;;;;;5013245;28;20538;-80
2022/05/23 00:21:41;;;;;;;4.15;2.20;;;20.40;99.90;;;;;;5013824;28;20172;-80
2022/05/23 00:24:09;;;;;;;2.17;1.67;;;20.40;99.90;;;;;;5013532;28;20205;-82
2022/05/23 00:26:35;;;;;;;5.93;2.05;;;20.50;99.90;;;;;;5012020;28;20160;-81
2022/05/23 00:29:01;;;;;;;3.45;2.03;;;20.60;99.90;;;;;;5013154;28;20646;-80
2022/05/23 00:31:26;;;;;;;5.20;2.05;;;20.50;99.90;;;;;;5011991;28;20187;-80
2022/05/23 00:36:36;;;;;;;4.15;2.13;;;20.40;99.90;;;;;;5013112;28;20179;-78
2022/05/23 00:39:03;;;;;;;2.75;1.92;;;20.40;99.90;;;;;;5012959;28;20156;-85
2022/05/23 00:44:18;;;;;;;4.05;2.08;;;20.30;99.90;;;;;;5012973;28;20176;-79
2022/05/23 00:46:53;;;;;;;8.82;2.40;;;20.20;99.90;;;;;;5012626;28;20194;-80
2022/05/23 00:49:25;;;;;;;6.15;2.65;;;20.20;99.90;;;;;;5014951;28;20172;-80
2022/05/23 00:51:52;;;;;;;3.33;2.08;;;20.20;99.90;;;;;;5017471;28;20251;-80
2022/05/23 00:54:20;;;;;;;8.07;2.40;;;20.10;99.90;;;;;;5017140;28;20575;-80
2022/05/23 00:56:48;;;;;;;5.25;2.33;;;20.20;99.90;;;;;;5016311;28;20181;-79
2022/05/23 00:59:30;;;;;;;5.57;2.50;;;20.20;99.90;;;;;;5033879;22;20169;-79
2022/05/23 01:01:57;;;;;;;5.82;2.40;;;20.20;99.90;;;;;;4998633;28;20645;-80
2022/05/23 01:04:23;;;;;;;11.93;2.88;;;20.20;99.90;;;;;;5015993;28;20169;-79
2022/05/23 01:06:54;;;;;;;9.15;2.05;;;20.10;99.90;;;;;;5012819;28;20192;-80
2022/05/23 01:09:25;;;;;;;7.40;2.25;;;20.20;99.90;;;;;;4996652;28;20659;-79
2022/05/23 01:11:53;;;;;;;4.75;2.13;;;20.20;99.90;;;;;;4996405;28;20252;-79
2022/05/23 01:14:20;;;;;;;3.67;2.17;;;20.20;99.90;;;;;;4996870;28;20736;-79
2022/05/23 01:16:46;;;;;;;4.40;2.13;;;20.20;99.90;;;;;;4996874;28;20181;-80
2022/05/23 01:19:12;;;;;;;2.40;1.90;;;20.10;99.90;;;;;;4996435;28;20683;-79
2022/05/23 01:21:47;;;;;;;2.10;1.90;;;20.20;99.90;;;;;;4996608;28;20259;-79
2022/05/23 01:24:21;;;;;;;3.42;2.40;;;20.10;99.90;;;;;;4979264;28;20599;-80
2022/05/23 01:26:48;;;;;;;4.80;2.03;;;20.30;99.90;;;;;;4996115;28;20189;-79
2022/05/23 01:29:15;;;;;;;2.03;1.58;;;20.40;99.90;;;;;;4996696;28;20188;-80
2022/05/23 01:31:42;;;;;;;3.53;1.98;;;20.30;99.90;;;;;;4996606;28;20165;-79
2022/05/23 01:34:10;;;;;;;8.02;2.60;;;20.20;99.90;;;;;;4997145;28;20252;-80
2022/05/23 01:36:36;;;;;;;7.55;2.20;;;20.30;99.90;;;;;;4997426;28;20204;-81
2022/05/23 01:39:02;;;;;;;6.20;2.58;;;20.30;99.90;;;;;;4996060;28;20193;-82
2022/05/23 01:41:28;;;;;;;4.15;2.08;;;20.40;99.90;;;;;;4996041;28;20701;-80
2022/05/23 01:43:53;;;;;;;5.88;2.33;;;20.40;99.90;;;;;;4996535;28;20170;-80
2022/05/23 01:46:20;;;;;;;6.57;2.33;;;20.30;99.90;;;;;;4996329;28;20536;-79
2022/05/23 01:48:46;;;;;;;3.10;2.28;;;20.40;99.90;;;;;;4996010;28;20672;-80
2022/05/23 01:51:12;;;;;;;3.50;2.42;;;20.40;99.90;;;;;;4995843;28;20620;-80
2022/05/23 01:53:38;;;;;;;4.78;2.22;;;20.30;99.90;;;;;;4978160;28;20173;-81
2022/05/23 01:56:04;;;;;;;3.65;2.25;;;20.40;99.90;;;;;;4995728;28;20173;-80
2022/05/23 02:01:15;;;;;;;4.68;2.60;;;20.20;99.90;;;;;;4995441;28;20204;-79
2022/05/23 02:03:43;;;;;;;5.57;2.40;;;19.90;99.90;;;;;;4995813;28;20231;-79
2022/05/23 02:06:09;;;;;;;9.32;2.45;;;19.90;99.90;;;;;;4996022;28;20158;-79
2022/05/23 02:08:35;;;;;;;8.15;2.45;;;19.90;99.90;;;;;;4995665;28;20621;-80
2022/05/23 02:11:01;;;;;;;6.10;2.20;;;20.00;99.90;;;;;;4995888;28;20176;-79
2022/05/23 02:13:27;;;;;;;2.60;2.40;;;20.00;99.90;;;;;;4995824;28;20657;-79
2022/05/23 02:15:52;;;;;;;13.90;2.30;;;19.90;99.90;;;;;;4995420;28;20240;-81
2022/05/23 02:18:18;;;;;;;9.00;2.70;;;20.00;99.90;;;;;;4995538;28;20189;-80
2022/05/23 02:20:43;;;;;;;4.00;2.15;;;20.00;99.90;;;;;;4978045;28;20184;-79
2022/05/23 02:23:09;;;;;;;8.15;2.42;;;19.90;99.90;;;;;;4977779;28;20182;-80
2022/05/23 02:25:35;;;;;;;6.45;2.65;;;19.70;99.90;;;;;;4995221;28;20173;-79
2022/05/23 02:28:01;;;;;;;4.68;2.88;;;19.60;99.90;;;;;;4995024;28;20229;-79
2022/05/23 02:30:26;;;;;;;6.28;2.40;;;19.70;99.90;;;;;;4995379;28;20201;-79
2022/05/23 02:32:52;;;;;;;3.95;2.80;;;19.70;99.90;;;;;;5010632;28;20581;-79
2022/05/23 02:35:18;;;;;;;4.15;2.47;;;19.50;99.90;;;;;;4995059;28;20166;-80
2022/05/23 02:37:45;;;;;;;7.95;2.45;;;19.50;99.90;;;;;;4994999;28;20193;-79
2022/05/23 02:40:11;;;;;;;4.40;2.42;;;19.50;99.90;;;;;;4995025;28;20173;-78
2022/05/23 02:42:37;;;;;;;6.32;2.40;;;19.50;99.90;;;;;;4995101;28;20172;-80
2022/05/23 02:45:07;;;;;;;3.88;2.70;;;19.40;99.90;;;;;;4997761;28;20173;-80
2022/05/23 02:47:33;;;;;;;9.93;2.90;;;19.40;99.90;;;;;;5014165;28;20189;-79
2022/05/23 02:49:59;;;;;;;2.92;2.40;;;19.20;99.90;;;;;;5001632;28;20211;-79
2022/05/23 02:52:25;;;;;;;4.10;2.50;;;19.30;99.90;;;;;;4996229;28;20200;-79
2022/05/23 02:54:50;;;;;;;13.88;3.45;;;19.40;99.90;;;;;;4993539;28;20272;-79
2022/05/23 02:57:16;;;;;;;3.25;2.95;;;19.50;99.90;;;;;;4994982;28;20193;-79
2022/05/23 02:59:42;;;;;;;4.90;3.05;;;19.50;99.90;;;;;;4994519;28;20187;-79
2022/05/23 03:04:53;;;;;;;7.20;2.58;;;19.40;99.90;;;;;;4994683;28;20211;-80
2022/05/23 03:07:19;;;;;;;5.45;3.33;;;19.40;99.90;;;;;;4994308;28;20232;-79
2022/05/23 03:09:44;;;;;;;5.53;2.75;;;19.40;99.90;;;;;;4994710;28;20517;-79
2022/05/23 03:12:11;;;;;;;4.35;2.97;;;19.10;99.90;;;;;;4994073;28;20248;-79
2022/05/23 03:14:37;;;;;;;6.78;2.72;;;19.00;99.90;;;;;;4993008;28;20202;-79
2022/05/23 03:17:05;;;;;;;9.98;2.42;;;18.90;99.90;;;;;;4994382;28;20197;-79
2022/05/23 03:19:30;;;;;;;7.45;3.03;;;18.90;99.90;;;;;;4994554;28;20931;-79
2022/05/23 03:27:25;;;;;;;9.77;3.15;;;18.70;99.90;;;;;;4994235;28;20267;-80
2022/05/23 03:29:51;;;;;;;9.88;5.93;;;18.70;99.90;;;;;;4976836;28;20633;-80
2022/05/23 03:32:17;;;;;;;9.63;4.45;;;18.70;99.90;;;;;;4994180;28;20180;-80
2022/05/23 03:34:43;;;;;;;10.88;3.00;;;18.50;99.90;;;;;;4977467;28;20173;-81
2022/05/23 03:37:09;;;;;;;9.25;3.70;;;18.50;99.90;;;;;;4994422;28;20208;-80
2022/05/23 03:39:38;;;;;;;9.55;3.75;;;18.50;99.90;;;;;;4994013;28;20241;-80
2022/05/23 03:42:05;;;;;;;9.80;3.97;;;18.60;99.90;;;;;;4976528;28;20565;-80
2022/05/23 03:44:30;;;;;;;4.32;2.78;;;18.80;99.90;;;;;;4993845;28;20177;-79
2022/05/23 03:46:56;;;;;;;9.32;3.65;;;18.80;99.90;;;;;;4993687;28;20192;-79
2022/05/23 03:49:22;;;;;;;6.10;3.10;;;18.90;99.90;;;;;;5008828;28;20169;-80
2022/05/23 03:51:47;;;;;;;12.60;4.10;;;18.80;99.90;;;;;;4993604;28;20219;-79
2022/05/23 03:54:13;;;;;;;5.65;3.53;;;18.90;99.90;;;;;;4992311;28;20177;-79
2022/05/23 03:56:39;;;;;;;12.13;3.83;;;19.00;99.90;;;;;;4976176;28;20165;-80
2022/05/23 03:59:05;;;;;;;5.07;3.72;;;18.80;99.90;;;;;;4993455;28;20184;-80
2022/05/23 04:01:31;;;;;;;10.45;3.25;;;18.70;99.90;;;;;;4975970;28;20191;-81
2022/05/23 04:03:58;;;;;;;3.88;3.47;;;18.60;99.90;;;;;;4993228;28;20225;-80
2022/05/23 04:06:23;;;;;;;8.52;5.03;;;18.80;99.90;;;;;;4993824;28;20534;-79
2022/05/23 04:08:49;;;;;;;9.52;4.80;;;18.90;99.90;;;;;;4993409;28;20205;-80
2022/05/23 04:11:15;;;;;;;10.63;4.30;;;19.10;99.90;;;;;;4993254;28;20184;-79
2022/05/23 04:13:41;;;;;;;9.55;4.50;;;19.10;99.90;;;;;;4993159;28;20641;-80
2022/05/23 04:16:06;;;;;;;13.00;4.28;;;18.90;99.90;;;;;;4993270;28;20767;-79
2022/05/23 04:18:33;;;;;;;7.57;4.35;;;18.70;99.90;;;;;;4992693;28;20325;-79
2022/05/23 04:20:59;;;;;;;5.20;4.72;;;18.80;99.90;;;;;;4992705;28;20168;-79
2022/05/23 04:23:25;;;;;;;12.38;4.40;;;18.80;99.90;;;;;;4992157;28;20173;-79
2022/05/23 04:25:51;;;;;;;8.73;4.85;;;18.80;99.90;;;;;;4992951;28;20572;-80
2022/05/23 04:28:18;;;;;;;15.30;5.20;;;18.80;99.90;;;;;;4992696;28;20213;-79
2022/05/23 04:30:45;;;;;;;9.40;5.05;;;18.80;99.90;;;;;;4993143;28;20173;-80
2022/05/23 04:35:57;;;;;;;12.57;5.32;;;18.80;99.90;;;;;;4993151;28;20284;-82
2022/05/23 04:38:23;;;;;;;11.13;5.90;;;18.90;99.90;;;;;;4993007;28;20255;-81
2022/05/23 04:40:49;;;;;;;14.13;6.65;;;18.90;99.90;;;;;;4993273;28;20256;-81
2022/05/23 04:43:15;;;;;;;14.93;5.30;;;18.90;99.90;;;;;;4993183;28;20292;-81
2022/05/23 04:45:42;;;;;;;6.30;5.38;;;19.00;99.90;;;;;;4993036;28;20180;-81
2022/05/23 04:50:52;;;;;;;14.02;5.57;;;19.20;99.90;;;;;;4993327;28;20204;-81
2022/05/23 04:53:18;;;;;;;17.63;6.43;;;19.10;99.90;;;;;;4992051;28;20200;-80
2022/05/23 04:55:44;;;;;;;8.75;5.22;;;19.00;99.90;;;;;;4992918;28;20210;-80
2022/05/23 04:58:11;;;;;;;12.15;5.35;;;19.10;99.90;;;;;;4992564;28;20676;-80
2022/05/23 05:00:39;;;;;;;10.90;5.15;;;19.20;99.90;;;;;;4993559;28;20192;-79
2022/05/23 05:03:05;;;;;;;8.43;6.40;;;19.10;99.90;;;;;;4994616;28;20189;-81
2022/05/23 05:05:33;;;;;;;16.55;7.13;;;19.20;99.90;;;;;;4993789;28;20169;-79
2022/05/23 05:08:00;;;;;;;20.73;7.45;;;19.30;99.90;;;;;;4993611;28;20664;-80
2022/05/23 05:10:28;;;;;;;18.48;7.45;;;19.40;99.90;;;;;;4993197;28;20158;-79
2022/05/23 05:12:55;;;;;;;28.08;6.60;;;19.10;99.90;;;;;;4994120;28;20169;-79
2022/05/23 05:15:22;;;;;;;33.13;6.60;;;19.00;99.90;;;;;;4993558;28;20176;-81
2022/05/23 05:17:48;;;;;;;21.38;7.28;;;19.00;99.90;;;;;;4995921;28;20193;-80
2022/05/23 05:20:18;;;;;;;9.32;5.90;;;19.10;99.90;;;;;;5002683;28;20180;-81
2022/05/23 05:22:44;;;;;;;18.02;6.57;;;19.20;99.90;;;;;;5001018;28;20169;-82
2022/05/23 05:25:10;;;;;;;16.85;6.45;;;19.50;99.90;;;;;;5008601;28;20264;-81
2022/05/23 05:27:37;;;;;;;34.55;7.18;;;19.60;99.90;;;;;;5008152;28;20228;-80
2022/05/23 05:30:04;;;;;;;15.35;6.05;;;19.60;99.90;;;;;;4976030;28;20629;-81
2022/05/23 05:32:42;;;;;;;12.95;5.82;;;19.70;99.90;;;;;;4976381;28;20626;-81
2022/05/23 05:35:34;;;;;;;24.13;9.98;;;19.70;99.90;;;;;;5011511;28;20212;-80
2022/05/23 05:38:16;;;;;;;18.17;6.45;;;19.50;99.90;;;;;;4997202;28;20683;-80
2022/05/23 05:40:45;;;;;;;15.60;6.25;;;19.60;99.90;;;;;;5012745;28;20181;-81
2022/05/23 05:43:16;;;;;;;30.00;6.75;;;19.70;99.90;;;;;;4997455;28;20256;-81
2022/05/23 05:45:53;;;;;;;19.17;7.13;;;19.80;99.90;;;;;;5012176;28;20185;-82
2022/05/23 05:48:19;;;;;;;14.60;6.55;;;20.00;99.90;;;;;;4980335;28;20216;-84
2022/05/23 05:50:47;;;;;;;19.48;7.35;;;20.00;99.90;;;;;;4997203;28;20181;-82
2022/05/23 05:53:22;;;;;;;27.40;8.35;;;20.00;99.90;;;;;;4979524;28;20227;-81
2022/05/23 05:55:49;;;;;;;17.83;7.20;;;19.90;99.90;;;;;;4997028;28;20609;-81
2022/05/23 05:58:16;;;;;;;21.30;7.03;;;19.70;99.90;;;;;;4997643;28;20227;-80
2022/05/23 06:00:41;;;;;;;13.52;7.07;;;19.80;99.90;;;;;;4997261;28;20184;-81
2022/05/23 06:03:07;;;;;;;8.38;6.43;;;19.40;99.90;;;;;;5019820;28;20211;-80
2022/05/23 06:11:23;;;;;;;20.33;6.50;;;19.60;99.90;;;;;;5018876;28;20172;-82
2022/05/23 06:13:49;;;;;;;19.13;6.47;;;19.80;99.90;;;;;;5018916;28;20199;-82
2022/05/23 06:16:14;;;;;;;24.08;6.28;;;20.10;99.90;;;;;;5018575;28;20215;-80
2022/05/23 06:18:40;;;;;;;25.23;6.70;;;20.20;99.90;;;;;;5016629;28;20192;-81
2022/05/23 06:21:09;;;;;;;13.55;6.53;;;20.20;99.90;;;;;;5018113;28;20676;-81
2022/05/23 06:23:36;;;;;;;13.50;6.57;;;20.20;99.90;;;;;;4999269;28;20226;-80
2022/05/23 06:26:02;;;;;;;13.10;6.15;;;20.20;99.90;;;;;;5016313;28;20907;-80
2022/05/23 06:28:27;;;;;;;20.80;6.30;;;20.10;99.90;;;;;;5014186;28;20239;-81
2022/05/23 06:30:54;;;;;;;37.35;7.03;;;20.10;99.90;;;;;;5017669;28;20652;-79
2022/05/23 06:33:20;;;;;;;20.95;6.43;;;20.30;99.90;;;;;;5018751;28;20160;-79
2022/05/23 06:35:46;;;;;;;16.10;6.60;;;20.30;99.90;;;;;;5019373;28;20175;-79
2022/05/23 06:38:12;;;;;;;19.85;6.10;;;20.10;99.90;;;;;;5017835;28;20184;-81
2022/05/23 06:40:37;;;;;;;14.63;6.88;;;20.30;99.90;;;;;;5017352;28;20184;-79
2022/05/23 06:43:03;;;;;;;9.02;5.93;;;20.40;99.90;;;;;;5014812;28;20161;-76
2022/05/23 06:45:29;;;;;;;14.18;6.43;;;20.40;99.90;;;;;;5014658;28;20541;-82
2022/05/23 06:47:54;;;;;;;12.18;6.45;;;20.60;99.90;;;;;;4997803;28;20208;-87
2022/05/23 06:50:20;;;;;;;18.23;6.05;;;20.90;99.90;;;;;;5015825;28;20578;-85
2022/05/23 06:52:46;;;;;;;22.05;6.53;;;20.90;99.90;;;;;;5008517;28;20204;-84
2022/05/23 06:55:12;;;;;;;22.90;7.07;;;21.10;99.90;;;;;;4998319;28;20176;-82
2022/05/23 06:57:38;;;;;;;25.92;6.40;;;21.20;99.90;;;;;;5005984;28;20191;-82
2022/05/23 07:00:09;;;;;;;21.85;6.75;;;21.30;99.90;;;;;;5036989;22;20812;-83
2022/05/23 07:02:37;;;;;;;19.60;6.65;;;20.80;99.90;;;;;;5055950;28;20210;-87
2022/05/23 07:13:16;;;;;;;13.25;5.93;;;21.50;99.90;;;;;;5054028;28;20603;-84
2022/05/23 07:15:46;;;;;;;18.40;6.15;;;21.60;99.90;;;;;;5054055;28;20167;-84
2022/05/23 07:18:13;;;;;;;19.90;6.18;;;21.30;99.90;;;;;;5035890;28;20199;-89
2022/05/23 07:20:40;;;;;;;15.88;5.47;;;21.00;99.90;;;;;;5036511;28;20621;-88
2022/05/23 07:23:05;;;;;;;13.63;5.35;;;21.10;99.90;;;;;;5036749;28;20163;-88
2022/05/23 07:25:32;;;;;;;20.45;5.38;;;20.90;99.90;;;;;;5043751;28;20175;-84
2022/05/23 07:27:58;;;;;;;16.52;4.65;;;21.10;99.90;;;;;;5051633;28;20195;-82
2022/05/23 07:30:24;;;;;;;18.42;3.78;;;21.20;99.90;;;;;;5054670;28;20182;-89
2022/05/23 07:32:49;;;;;;;16.67;4.95;;;21.40;99.90;;;;;;5036266;28;20202;-92
2022/05/23 07:35:16;;;;;;;12.02;3.65;;;21.50;99.90;;;;;;5030688;28;20214;-93
2022/05/23 07:37:42;;;;;;;4.40;3.15;;;21.80;99.90;;;;;;5034311;28;20195;-87
2022/05/23 07:40:09;;;;;;;8.70;2.95;;;21.90;99.90;;;;;;5034366;28;20172;-92
2022/05/23 07:42:35;;;;;;;7.40;3.45;;;21.90;99.90;;;;;;5016864;28;20199;-87
2022/05/23 07:45:01;;;;;;;11.52;4.22;;;22.30;99.90;;;;;;5016957;28;20176;-88
2022/05/23 07:47:28;;;;;;;21.25;4.15;;;22.90;99.90;;;;;;5033105;28;20195;-86
2022/05/23 07:49:53;;;;;;;21.05;3.40;;;23.20;99.90;;;;;;5016135;28;20174;-88
2022/05/23 07:52:23;;;;;;;15.90;4.57;;;23.20;99.90;;;;;;5018607;28;20231;-95
2022/05/23 08:00:33;;;;;;;14.75;3.47;;;23.10;99.90;;;;;;5041105;28;20194;-83
2022/05/23 08:03:16;;;;;;;30.90;3.00;;;23.40;99.90;;;;;;5023255;28;20229;-83
2022/05/23 08:05:43;;;;;;;20.65;4.10;;;23.30;99.90;;;;;;5022230;28;20669;-83
2022/05/23 08:08:09;;;;;;;17.95;3.10;;;23.30;99.90;;;;;;5022213;28;20310;-82
2022/05/23 08:10:35;;;;;;;22.92;2.72;;;23.10;99.90;;;;;;5023689;28;20180;-84
2022/05/23 08:13:08;;;;;;;6.93;2.60;;;23.50;99.90;;;;;;5023401;28;20223;-83
2022/05/23 08:15:37;;;;;;;12.07;2.90;;;23.50;99.90;;;;;;5024842;28;20168;-83
2022/05/23 08:18:07;;;;;;;17.98;2.40;;;23.60;99.90;;;;;;5024239;28;20196;-83
2022/05/23 08:20:35;;;;;;;9.02;2.40;;;23.90;99.90;;;;;;5022923;28;20172;-83
2022/05/23 08:23:00;;;;;;;5.72;2.00;;;24.10;99.90;;;;;;5023748;28;20223;-83
2022/05/23 08:25:27;;;;;;;116.90;6.60;;;24.60;99.90;;;;;;5041301;28;20176;-83
2022/05/23 08:27:53;;;;;;;10.70;2.78;;;24.70;99.90;;;;;;5014356;28;20219;-84
2022/05/23 08:30:20;;;;;;;3.13;2.20;;;24.80;99.90;;;;;;4994949;28;20164;-85
2022/05/23 08:32:46;;;;;;;2.35;1.83;;;24.80;99.90;;;;;;5016387;28;20633;-85
2022/05/23 08:35:13;;;;;;;6.30;1.90;;;24.80;99.90;;;;;;5016810;28;20389;-84
2022/05/23 08:37:39;;;;;;;16.00;2.17;;;25.10;99.90;;;;;;5017035;28;20271;-83
2022/05/23 08:40:07;;;;;;;21.55;2.97;;;25.20;99.90;;;;;;5039738;28;20168;-82
2022/05/23 08:42:56;;;;;;;5.90;2.88;;;24.90;99.90;;;;;;5022018;28;20183;-84
2022/05/23 08:45:34;;;;;;;21.23;2.50;;;24.40;99.90;;;;;;5021388;28;20164;-84
2022/05/23 08:48:12;;;;;;;9.10;1.90;;;24.60;99.90;;;;;;5020385;28;20221;-93
2022/05/23 08:51:11;;;;;;;5.03;2.10;;;24.40;99.90;;;;;;5021250;28;20179;-90
2022/05/23 08:54:01;;;;;;;5.82;2.20;;;24.80;99.90;;;;;;5039951;28;20172;-88
2022/05/23 08:56:51;;;;;;;3.92;2.15;;;25.20;99.90;;;;;;5035957;28;20698;-85
2022/05/23 08:59:38;;;;;;;14.50;2.60;;;25.20;99.90;;;;;;5016730;28;20180;-82
2022/05/23 09:02:12;;;;;;;4.18;2.60;;;25.40;99.90;;;;;;5025199;28;20271;-81
2022/05/23 09:04:43;;;;;;;36.33;4.13;;;25.20;99.90;;;;;;5026159;28;20602;-82
2022/05/23 09:07:20;;;;;;;7.13;2.78;;;25.30;99.90;;;;;;5023694;28;20192;-82
2022/05/23 09:09:46;;;;;;;3.75;2.40;;;25.50;99.90;;;;;;5043704;28;20250;-82
2022/05/23 09:12:30;;;;;;;4.28;2.15;;;25.50;99.90;;;;;;5048316;28;20863;-82
2022/05/23 09:14:57;;;;;;;13.15;2.00;;;25.50;99.90;;;;;;5041044;28;20179;-82
2022/05/23 09:17:31;;;;;;;8.63;2.13;;;25.90;99.90;;;;;;5037555;28;20242;-87
2022/05/23 09:20:18;;;;;;;8.95;1.77;;;25.90;99.90;;;;;;5052956;28;20662;-92
2022/05/23 09:22:50;;;;;;;7.82;2.13;;;26.20;99.90;;;;;;5020459;28;20182;-85
2022/05/23 09:25:26;;;;;;;3.72;2.45;;;25.80;99.90;;;;;;5021062;28;20168;-90
2022/05/23 09:28:05;;;;;;;4.40;1.90;;;25.50;99.90;;;;;;5027032;28;20297;-82
2022/05/23 09:30:31;;;;;;;3.80;2.05;;;24.90;99.90;;;;;;5023652;28;20290;-82
2022/05/23 09:33:00;;;;;;;6.43;2.03;;;25.50;99.90;;;;;;5038120;28;20171;-82
2022/05/23 09:35:28;;;;;;;5.07;2.38;;;26.00;99.90;;;;;;5037624;28;20168;-86
2022/05/23 09:38:27;;;;;;;2.58;2.33;;;26.20;99.90;;;;;;5034866;28;20217;-80
2022/05/23 09:40:54;;;;;;;5.68;1.95;;;26.70;99.90;;;;;;5006438;28;20180;-83
2022/05/23 09:49:23;;;;;;;7.18;2.63;;;26.30;99.90;;;;;;5034629;28;20241;-81
2022/05/23 09:52:10;;;;;;;7.65;1.90;;;25.70;99.90;;;;;;5033549;28;20176;-86
2022/05/23 09:54:40;;;;;;;4.18;1.63;;;25.20;99.90;;;;;;5017609;28;20203;-83
2022/05/23 09:57:32;;;;;;;16.88;2.20;;;25.00;99.90;;;;;;5034134;28;20199;-83
2022/05/23 10:00:07;;;;;;;12.60;2.20;;;25.20;99.90;;;;;;5016911;28;20184;-81
2022/05/23 10:02:48;;;;;;;2.58;1.70;;;25.10;99.90;;;;;;5034665;28;20191;-83
2022/05/23 10:05:34;;;;;;;6.88;1.80;;;24.90;99.90;;;;;;5035160;28;20240;-86
2022/05/23 10:08:05;;;;;;;8.68;1.45;;;24.70;99.90;;;;;;5034212;28;20215;-86
2022/05/23 10:10:34;;;;;;;10.55;2.10;;;24.90;99.90;;;;;;5017349;28;20182;-86
2022/05/23 10:13:18;;;;;;;3.65;2.10;;;25.20;99.90;;;;;;5017329;28;20168;-82
2022/05/23 10:15:46;;;;;;;2.05;1.63;;;25.50;99.90;;;;;;5016951;28;20278;-80
2022/05/23 10:18:33;;;;;;;4.90;1.83;;;25.50;99.90;;;;;;5034970;28;20603;-80
2022/05/23 10:21:01;;;;;;;3.50;1.20;;;25.50;99.90;;;;;;5016094;28;20172;-81
2022/05/23 10:23:33;;;;;;;4.30;1.50;;;25.40;99.90;;;;;;5016505;28;20172;-83
2022/05/23 10:26:06;;;;;;;4.85;1.42;;;25.30;99.90;;;;;;5017755;28;20176;-82
2022/05/23 10:28:37;;;;;;;11.98;2.33;;;25.00;99.90;;;;;;5034187;28;20218;-81
2022/05/23 10:31:08;;;;;;;2.83;1.90;;;25.30;99.90;;;;;;5034347;28;20215;-82
2022/05/23 10:33:35;;;;;;;6.10;1.48;;;25.50;99.90;;;;;;5016765;28;20574;-82
2022/05/23 10:36:05;;;;;;;7.18;1.50;;;25.20;99.90;;;;;;5016923;28;20172;-82
2022/05/23 10:44:53;;;;;;;5.45;1.98;;;24.90;99.90;;;;;;5034543;28;20206;-82
2022/05/23 10:47:31;;;;;;;2.13;1.90;;;24.80;99.90;;;;;;5049121;28;20218;-81
2022/05/23 10:50:19;;;;;;;9.15;2.10;;;24.70;99.90;;;;;;5016369;28;20198;-81
2022/05/23 10:53:25;;;;;;;6.18;2.08;;;24.60;99.90;;;;;;5015981;28;20658;-81
2022/05/23 10:56:12;;;;;;;6.13;1.95;;;25.00;99.90;;;;;;5008592;28;20198;-81
2022/05/23 10:58:50;;;;;;;4.68;2.22;;;25.30;99.90;;;;;;5015824;28;20233;-81
2022/05/23 11:01:28;;;;;;;5.97;1.85;;;25.50;99.90;;;;;;5016201;28;20195;-83
2022/05/23 11:04:12;;;;;;;23.63;2.53;;;25.30;99.90;;;;;;5015861;28;20234;-83
2022/05/23 11:07:18;;;;;;;7.15;2.80;;;25.30;99.90;;;;;;5049430;28;20172;-82
2022/05/23 11:10:22;;;;;;;41.85;3.17;;;25.70;99.90;;;;;;5016188;28;20257;-80
2022/05/23 11:13:15;;;;;;;12.65;3.10;;;26.10;99.90;;;;;;4972454;28;20201;-81
2022/05/23 11:15:52;;;;;;;3.08;2.28;;;25.90;99.90;;;;;;4972691;28;20189;-81
2022/05/23 11:18:54;;;;;;;3.03;2.58;;;25.40;99.90;;;;;;5005067;28;20698;-82
2022/05/23 11:21:29;;;;;;;4.63;2.35;;;24.70;99.90;;;;;;5033241;28;20159;-83
2022/05/23 11:24:04;;;;;;;9.57;2.38;;;24.10;99.90;;;;;;5048678;28;20175;-83
2022/05/23 11:26:36;;;;;;;15.20;3.53;;;23.90;99.90;;;;;;5033701;28;20164;-82
2022/05/23 11:34:55;;;;;;;6.53;2.85;;;22.20;99.90;;;;;;5035712;28;20253;-81
2022/05/23 11:39:57;;;;;;;5.70;2.60;;;21.50;99.90;;;;;;5034024;28;20180;-82
2022/05/23 11:42:27;;;;;;;6.68;2.60;;;21.50;99.90;;;;;;5015297;28;20249;-81
2022/05/23 11:44:57;;;;;;;4.85;3.08;;;21.40;99.90;;;;;;5036002;28;20156;-80
2022/05/23 11:47:28;;;;;;;4.28;3.03;;;21.30;99.90;;;;;;5014743;28;20207;-81
2022/05/23 11:50:00;;;;;;;7.55;3.65;;;21.40;99.90;;;;;;5016648;28;20176;-80
2022/05/23 11:52:34;;;;;;;6.38;3.75;;;21.30;99.90;;;;;;5017139;28;20178;-83
2022/05/23 11:55:01;;;;;;;6.22;3.53;;;21.20;99.90;;;;;;5017177;28;20270;-81
2022/05/23 11:57:39;;;;;;;4.65;2.90;;;21.20;99.90;;;;;;5034303;28;20275;-80
2022/05/23 12:00:36;;;;;;;3.70;3.17;;;21.20;99.90;;;;;;5033365;28;20237;-80
2022/05/23 12:03:11;;;;;;;10.32;2.95;;;21.30;99.90;;;;;;5016744;28;20176;-81
2022/05/23 12:05:38;;;;;;;8.18;3.08;;;21.30;99.90;;;;;;5051222;28;20172;-80
2022/05/23 12:08:06;;;;;;;4.15;3.42;;;21.20;99.90;;;;;;5017398;28;20286;-83
2022/05/23 12:10:36;;;;;;;9.05;4.45;;;21.40;99.90;;;;;;5033849;28;20252;-82
2022/05/23 12:13:11;;;;;;;18.48;4.50;;;21.60;99.90;;;;;;5033897;28;20221;-82
2022/05/23 12:15:43;;;;;;;30.27;6.18;;;21.60;99.90;;;;;;5034114;28;20178;-83
2022/05/23 12:18:21;;;;;;;18.10;5.28;;;21.40;99.90;;;;;;5035873;28;20218;-84
2022/05/23 12:20:50;;;;;;;14.35;6.25;;;21.00;99.90;;;;;;5019585;28;20218;-82
2022/05/23 12:23:30;;;;;;;10.02;5.63;;;20.80;99.90;;;;;;5033016;28;20650;-84
2022/05/23 12:26:23;;;;;;;20.67;6.18;;;20.70;99.90;;;;;;5032625;28;20164;-85
2022/05/23 12:29:01;;;;;;;9.57;5.60;;;20.90;99.90;;;;;;5032628;28;20294;-84
2022/05/23 12:31:29;;;;;;;9.65;5.65;;;21.10;99.90;;;;;;5034693;28;20250;-84
2022/05/23 12:34:07;;;;;;;12.73;5.55;;;21.00;99.90;;;;;;5035069;28;20160;-84
2022/05/23 12:36:36;;;;;;;16.00;5.30;;;21.00;99.90;;;;;;5014826;28;20593;-83
2022/05/23 12:39:21;;;;;;;20.33;6.80;;;21.00;99.90;;;;;;5015052;28;20167;-83
2022/05/23 12:41:50;;;;;;;23.85;6.95;;;21.00;99.90;;;;;;5032696;28;20180;-82
2022/05/23 12:44:53;;;;;;;14.40;6.47;;;21.00;99.90;;;;;;5031836;28;20631;-84
2022/05/23 12:47:53;;;;;;;6.90;6.07;;;21.10;99.90;;;;;;5001120;28;20216;-85
2022/05/23 12:50:37;;;;;;;7.22;5.70;;;20.80;99.90;;;;;;5032480;28;20193;-83
2022/05/23 12:53:31;;;;;;;7.95;5.60;;;20.50;99.90;;;;;;5032535;28;20163;-85
2022/05/23 12:56:09;;;;;;;15.27;7.00;;;20.20;99.90;;;;;;5032528;28;20186;-84
2022/05/23 12:58:34;;;;;;;8.65;5.90;;;20.20;99.90;;;;;;5032239;28;20198;-84
2022/05/23 13:01:04;;;;;;;11.48;7.05;;;20.30;99.90;;;;;;5032927;28;20268;-84
2022/05/23 13:03:56;;;;;;;10.57;6.95;;;20.10;99.90;;;;;;5032452;28;20175;-82
2022/05/23 13:06:42;;;;;;;10.00;7.15;;;20.20;99.90;;;;;;5029678;28;20191;-83
2022/05/23 13:09:25;;;;;;;15.00;7.78;;;20.00;99.90;;;;;;5047707;28;20622;-80
2022/05/23 13:11:57;;;;;;;10.13;7.63;;;20.10;99.90;;;;;;5014311;28;20454;-84
2022/05/23 13:14:23;;;;;;;11.77;7.10;;;20.10;99.90;;;;;;5032669;28;20179;-82
2022/05/23 13:16:57;;;;;;;15.95;8.30;;;20.00;99.90;;;;;;5015061;28;20563;-83
2022/05/23 13:22:21;;;;;;;10.75;7.90;;;20.10;99.90;;;;;;5032603;28;20190;-80
2022/05/23 13:24:53;;;;;;;10.90;7.57;;;20.30;99.90;;;;;;5014661;28;20230;-81
2022/05/23 13:27:49;;;;;;;13.30;8.05;;;20.50;99.90;;;;;;5013765;28;20245;-83
2022/05/23 13:30:20;;;;;;;10.10;7.65;;;20.50;99.90;;;;;;5013946;28;20187;-83
2022/05/23 13:33:01;;;;;;;8.00;7.15;;;20.40;99.90;;;;;;5014180;28;20217;-82
2022/05/23 13:35:28;;;;;;;8.38;7.30;;;20.60;99.90;;;;;;5014034;28;20263;-82
2022/05/23 13:37:54;;;;;;;9.60;7.90;;;20.70;99.90;;;;;;5031927;28;20175;-84
2022/05/23 13:40:26;;;;;;;8.50;7.18;;;20.60;99.90;;;;;;5032106;28;20195;-81
2022/05/23 13:43:12;;;;;;;8.55;7.63;;;20.80;99.90;;;;;;5031907;28;20164;-81
2022/05/23 13:45:41;;;;;;;16.40;8.38;;;20.60;99.90;;;;;;5032199;28;20168;-83
2022/05/23 13:48:16;;;;;;;8.48;7.70;;;20.40;99.90;;;;;;5031876;28;20243;-83
2022/05/23 13:50:48;;;;;;;13.32;8.10;;;20.50;99.90;;;;;;5031880;28;20159;-81
2022/05/23 13:53:21;;;;;;;12.57;7.78;;;20.80;99.90;;;;;;5031531;28;20172;-83
2022/05/23 13:55:49;;;;;;;11.02;7.75;;;20.80;99.90;;;;;;5013753;28;20174;-81
2022/05/23 13:58:17;;;;;;;12.63;8.13;;;20.60;99.90;;;;;;5035141;28;20254;-83
2022/05/23 14:00:56;;;;;;;8.05;7.25;;;20.70;99.90;;;;;;5016937;28;20184;-81
2022/05/23 14:03:33;;;;;;;14.35;7.82;;;20.70;99.90;;;;;;5034975;28;20167;-81
2022/05/23 14:06:01;;;;;;;16.63;8.63;;;20.50;99.90;;;;;;5034714;28;20597;-82
2022/05/23 14:08:35;;;;;;;12.90;9.07;;;20.50;99.90;;;;;;5016560;28;20207;-83